Closter, New Jersey
Current Conditions -  °F | °C
As of 8:51 PM on Wednesday 26 Nov 2014 (Local Time) from KTEB Reporting Station
Light Snow Light Snow  
Wind Chill: 27°   Ceiling: 2700
Heat Index: 35°   Visibility: 3mi
Dew Point: 31°   Wind: 10mph
Humidity: 85%   Direction: 340°NNW
Pressure: 29.8"   Gusts: NA
Location:  40.97°N, 73.96°W
Report Text: KTEB 270151Z 34009KT 3SM -SN BKN027 OVC034 02/M01 A2980 RMK AO2 RAE44SNB05 SLP091 P0004 T00171006 $
Loading
Personal Weather Stations






























Interactive Weather Map New forecast layout! Learn more

10-Day Weather Forecast

Advertisements
Track Severe Weather on mobile